CTG2 weather

Montreal / St-Hubert Helicraft
Montréal, Quebec, Canada

Public forecast

Using degrees Celsius for public forecast. Weather courtesy of forecast.io.

Closest aviation weather report (METAR) to Montreal / St-Hubert Helicraft

Closest report is Montréal / Saint-Hubert Airport, 0.9 nm (1.7 km) SSW. Retrieved 2020/07/12 09:23 UTC (10 minutes ago):

CYHU 120923Z AUTO 20004KT 7SM SCT016 BKN055 22/22 A2945 RMK SLP974 DENSITY ALT 1400FT

Closest aviation forecast (TAF) to Montreal / St-Hubert Helicraft

Closest forecast is Montréal / Saint-Hubert Airport, 0.9 nm (1.7 km) SSW. Retrieved 2020/07/12 06:42 UTC (3 hours ago):

TAF CYHU 120538Z 1206/1306 20006KT P6SM SCT015 BKN025 OVC080 TEMPO 1206/1208 5SM -SHRA BR BKN008 OVC015 FM120800 23008KT 5SM -SHRA BR OVC008 TEMPO 1208/1213 P6SM NSW OVC012 FM121300 27012G22KT P6SM OVC015 FM121600 28010G20KT P6SM BKN030 BECMG 1219/1221 26010G20KT FM130300 25010KT P6SM BKN030 RMK FCST BASED ON AUTO OBS NXT FCST BY 121200Z